sensor_id;sensor_type;location;lat;lon;timestamp;pressure;altitude;pressure_sealevel;temperature;humidity
67099;BME280;54288;53.046;5.668;2023-08-01T00:01:36;99853.47;;;16.11;100.00
67099;BME280;54288;53.046;5.668;2023-08-01T00:04:02;99856.38;;;16.06;100.00
67099;BME280;54288;53.046;5.668;2023-08-01T00:06:28;99854.63;;;16.07;100.00
67099;BME280;54288;53.046;5.668;2023-08-01T00:08:54;99843.09;;;16.08;100.00
67099;BME280;54288;53.046;5.668;2023-08-01T00:11:19;99844.03;;;16.07;100.00
67099;BME280;54288;53.046;5.668;2023-08-01T00:13:45;99838.84;;;16.05;100.00
67099;BME280;54288;53.046;5.668;2023-08-01T00:16:11;99840.91;;;16.00;100.00
67099;BME280;54288;53.046;5.668;2023-08-01T00:18:36;99836.66;;;15.98;100.00
67099;BME280;54288;53.046;5.668;2023-08-01T00:21:03;99832.47;;;15.94;100.00
67099;BME280;54288;53.046;5.668;2023-08-01T00:23:31;99826.59;;;15.89;100.00
67099;BME280;54288;53.046;5.668;2023-08-01T00:25:57;99828.41;;;15.88;100.00
67099;BME280;54288;53.046;5.668;2023-08-01T00:28:23;99825.94;;;15.85;100.00
67099;BME280;54288;53.046;5.668;2023-08-01T00:30:49;99820.25;;;15.77;100.00
67099;BME280;54288;53.046;5.668;2023-08-01T00:33:14;99804.59;;;15.74;100.00
67099;BME280;54288;53.046;5.668;2023-08-01T00:35:40;99809.69;;;15.77;100.00
67099;BME280;54288;53.046;5.668;2023-08-01T00:38:06;99814.22;;;15.75;100.00
67099;BME280;54288;53.046;5.668;2023-08-01T00:40:33;99813.72;;;15.69;100.00
67099;BME280;54288;53.046;5.668;2023-08-01T00:43:00;99808.38;;;15.70;100.00
67099;BME280;54288;53.046;5.668;2023-08-01T00:45:26;99804.09;;;15.68;100.00
67099;BME280;54288;53.046;5.668;2023-08-01T00:47:54;99804.09;;;15.68;100.00
67099;BME280;54288;53.046;5.668;2023-08-01T00:50:20;99801.53;;;15.66;100.00
67099;BME280;54288;53.046;5.668;2023-08-01T00:52:50;99793.63;;;15.66;100.00
67099;BME280;54288;53.046;5.668;2023-08-01T00:55:17;99781.47;;;15.64;100.00
67099;BME280;54288;53.046;5.668;2023-08-01T00:57:43;99781.38;;;15.65;100.00
67099;BME280;54288;53.046;5.668;2023-08-01T01:00:10;99772.59;;;15.65;100.00
67099;BME280;54288;53.046;5.668;2023-08-01T01:02:36;99769.00;;;15.66;100.00
67099;BME280;54288;53.046;5.668;2023-08-01T01:05:03;99757.69;;;15.64;100.00
67099;BME280;54288;53.046;5.668;2023-08-01T01:07:29;99760.94;;;15.69;100.00
67099;BME280;54288;53.046;5.668;2023-08-01T01:09:57;99766.97;;;15.71;100.00
67099;BME280;54288;53.046;5.668;2023-08-01T01:12:23;99757.19;;;15.73;100.00
67099;BME280;54288;53.046;5.668;2023-08-01T01:14:49;99755.38;;;15.73;100.00
67099;BME280;54288;53.046;5.668;2023-08-01T01:17:14;99758.59;;;15.78;100.00
67099;BME280;54288;53.046;5.668;2023-08-01T01:19:40;99758.59;;;15.78;100.00
67099;BME280;54288;53.046;5.668;2023-08-01T01:22:08;99756.03;;;15.77;100.00
67099;BME280;54288;53.046;5.668;2023-08-01T01:24:36;99754.34;;;15.76;100.00
67099;BME280;54288;53.046;5.668;2023-08-01T01:27:04;99754.34;;;15.76;100.00
67099;BME280;54288;53.046;5.668;2023-08-01T01:29:33;99745.69;;;15.74;100.00
67099;BME280;54288;53.046;5.668;2023-08-01T01:32:00;99750.28;;;15.70;100.00
67099;BME280;54288;53.046;5.668;2023-08-01T01:34:27;99734.53;;;15.69;100.00
67099;BME280;54288;53.046;5.668;2023-08-01T01:36:53;99742.44;;;15.69;100.00
67099;BME280;54288;53.046;5.668;2023-08-01T01:39:19;99733.78;;;15.67;100.00
67099;BME280;54288;53.046;5.668;2023-08-01T01:41:46;99728.84;;;15.61;100.00
67099;BME280;54288;53.046;5.668;2023-08-01T01:44:11;99721.88;;;15.60;100.00
67099;BME280;54288;53.046;5.668;2023-08-01T01:46:37;99720.59;;;15.67;100.00
67099;BME280;54288;53.046;5.668;2023-08-01T01:49:03;99719.44;;;15.71;100.00
67099;BME280;54288;53.046;5.668;2023-08-01T01:51:30;99725.50;;;15.73;100.00
67099;BME280;54288;53.046;5.668;2023-08-01T01:53:56;99722.59;;;15.77;100.00
67099;BME280;54288;53.046;5.668;2023-08-01T01:56:22;99720.53;;;15.82;100.00
67099;BME280;54288;53.046;5.668;2023-08-01T01:58:48;99714.09;;;15.86;100.00
67099;BME280;54288;53.046;5.668;2023-08-01T02:01:14;99730.63;;;15.90;100.00
67099;BME280;54288;53.046;5.668;2023-08-01T02:03:39;99735.34;;;15.99;100.00
67099;BME280;54288;53.046;5.668;2023-08-01T02:06:05;99747.59;;;16.00;100.00
67099;BME280;54288;53.046;5.668;2023-08-01T02:08:31;99735.34;;;15.85;100.00
67099;BME280;54288;53.046;5.668;2023-08-01T02:10:58;99750.00;;;15.75;100.00
67099;BME280;54288;53.046;5.668;2023-08-01T02:13:25;99749.94;;;15.61;100.00
67099;BME280;54288;53.046;5.668;2023-08-01T02:15:51;99740.31;;;15.46;100.00
67099;BME280;54288;53.046;5.668;2023-08-01T02:18:17;99754.44;;;15.45;100.00
67099;BME280;54288;53.046;5.668;2023-08-01T02:20:42;99736.56;;;15.34;100.00
67099;BME280;54288;53.046;5.668;2023-08-01T02:23:08;99742.69;;;15.35;100.00
67099;BME280;54288;53.046;5.668;2023-08-01T02:25:39;99733.94;;;15.34;100.00
67099;BME280;54288;53.046;5.668;2023-08-01T02:28:05;99733.00;;;15.35;100.00
67099;BME280;54288;53.046;5.668;2023-08-01T02:30:35;99729.50;;;15.35;100.00
67099;BME280;54288;53.046;5.668;2023-08-01T02:33:02;99728.81;;;15.31;100.00
67099;BME280;54288;53.046;5.668;2023-08-01T02:35:28;99720.84;;;15.33;100.00
67099;BME280;54288;53.046;5.668;2023-08-01T02:37:55;99730.38;;;15.35;100.00
67099;BME280;54288;53.046;5.668;2023-08-01T02:40:21;99731.13;;;15.37;100.00
67099;BME280;54288;53.046;5.668;2023-08-01T02:42:47;99729.44;;;15.36;100.00
67099;BME280;54288;53.046;5.668;2023-08-01T02:45:14;99733.09;;;15.34;100.00
67099;BME280;54288;53.046;5.668;2023-08-01T02:47:40;99724.56;;;15.29;100.00
67099;BME280;54288;53.046;5.668;2023-08-01T02:50:06;99732.28;;;15.32;100.00
67099;BME280;54288;53.046;5.668;2023-08-01T02:52:32;99725.50;;;15.28;100.00
67099;BME280;54288;53.046;5.668;2023-08-01T02:54:57;99729.75;;;15.30;100.00
67099;BME280;54288;53.046;5.668;2023-08-01T02:57:24;99715.69;;;15.30;100.00
67099;BME280;54288;53.046;5.668;2023-08-01T02:59:49;99713.13;;;15.28;100.00
67099;BME280;54288;53.046;5.668;2023-08-01T03:02:15;99723.81;;;15.27;100.00
67099;BME280;54288;53.046;5.668;2023-08-01T03:04:41;99723.88;;;15.25;100.00
67099;BME280;54288;53.046;5.668;2023-08-01T03:07:07;99723.97;;;15.24;100.00
67099;BME280;54288;53.046;5.668;2023-08-01T03:09:32;99716.91;;;15.24;100.00
67099;BME280;54288;53.046;5.668;2023-08-01T03:11:59;99716.06;;;15.24;100.00
67099;BME280;54288;53.046;5.668;2023-08-01T03:14:24;99706.72;;;15.18;100.00
67099;BME280;54288;53.046;5.668;2023-08-01T03:16:50;99709.09;;;15.23;100.00
67099;BME280;54288;53.046;5.668;2023-08-01T03:19:16;99707.53;;;15.19;100.00
67099;BME280;54288;53.046;5.668;2023-08-01T03:21:41;99723.09;;;15.23;100.00
67099;BME280;54288;53.046;5.668;2023-08-01T03:24:07;99710.94;;;15.21;100.00
67099;BME280;54288;53.046;5.668;2023-08-01T03:26:35;99715.47;;;15.19;100.00
67099;BME280;54288;53.046;5.668;2023-08-01T03:29:01;99715.53;;;15.17;100.00
67099;BME280;54288;53.046;5.668;2023-08-01T03:31:27;99723.56;;;15.16;100.00
67099;BME280;54288;53.046;5.668;2023-08-01T03:33:53;99719.97;;;15.17;100.00
67099;BME280;54288;53.046;5.668;2023-08-01T03:36:18;99727.03;;;15.16;100.00
67099;BME280;54288;53.046;5.668;2023-08-01T03:38:44;99725.25;;;15.17;100.00
67099;BME280;54288;53.046;5.668;2023-08-01T03:41:10;99727.81;;;15.18;100.00
67099;BME280;54288;53.046;5.668;2023-08-01T03:43:36;99726.75;;;15.21;100.00
67099;BME280;54288;53.046;5.668;2023-08-01T03:46:02;99723.28;;;15.20;100.00
67099;BME280;54288;53.046;5.668;2023-08-01T03:48:28;99720.81;;;15.17;100.00
67099;BME280;54288;53.046;5.668;2023-08-01T03:50:53;99728.56;;;15.20;100.00
67099;BME280;54288;53.046;5.668;2023-08-01T03:53:19;99730.09;;;15.24;100.00
67099;BME280;54288;53.046;5.668;2023-08-01T03:55:46;99717.75;;;15.25;100.00
67099;BME280;54288;53.046;5.668;2023-08-01T03:58:12;99727.53;;;15.23;100.00
67099;BME280;54288;53.046;5.668;2023-08-01T04:00:38;99731.59;;;15.28;100.00
67099;BME280;54288;53.046;5.668;2023-08-01T04:03:04;99728.56;;;15.36;100.00
67099;BME280;54288;53.046;5.668;2023-08-01T04:05:32;99721.41;;;15.38;100.00
67099;BME280;54288;53.046;5.668;2023-08-01T04:08:06;99725.56;;;15.42;100.00
67099;BME280;54288;53.046;5.668;2023-08-01T04:10:35;99724.56;;;15.44;100.00
67099;BME280;54288;53.046;5.668;2023-08-01T04:13:01;99733.91;;;15.50;100.00
67099;BME280;54288;53.046;5.668;2023-08-01T04:15:26;99732.97;;;15.51;100.00
67099;BME280;54288;53.046;5.668;2023-08-01T04:17:52;99724.19;;;15.50;100.00
67099;BME280;54288;53.046;5.668;2023-08-01T04:20:18;99732.03;;;15.52;100.00
67099;BME280;54288;53.046;5.668;2023-08-01T04:22:43;99731.09;;;15.53;100.00
67099;BME280;54288;53.046;5.668;2023-08-01T04:25:09;99725.06;;;15.51;100.00
67099;BME280;54288;53.046;5.668;2023-08-01T04:27:35;99726.16;;;15.47;100.00
67099;BME280;54288;53.046;5.668;2023-08-01T04:30:01;99718.53;;;15.42;100.00
67099;BME280;54288;53.046;5.668;2023-08-01T04:32:26;99722.34;;;15.37;100.00
67099;BME280;54288;53.046;5.668;2023-08-01T04:34:52;99716.25;;;15.36;100.00
67099;BME280;54288;53.046;5.668;2023-08-01T04:37:18;99711.78;;;15.37;100.00
67099;BME280;54288;53.046;5.668;2023-08-01T04:39:46;99711.78;;;15.37;100.00
67099;BME280;54288;53.046;5.668;2023-08-01T04:42:12;99716.13;;;15.38;100.00
67099;BME280;54288;53.046;5.668;2023-08-01T04:44:37;99706.63;;;15.35;100.00
67099;BME280;54288;53.046;5.668;2023-08-01T04:47:03;99706.44;;;15.38;100.00
67099;BME280;54288;53.046;5.668;2023-08-01T04:49:29;99714.28;;;15.40;100.00
67099;BME280;54288;53.046;5.668;2023-08-01T04:51:55;99714.94;;;15.43;100.00
67099;BME280;54288;53.046;5.668;2023-08-01T04:54:21;99703.53;;;15.43;100.00
67099;BME280;54288;53.046;5.668;2023-08-01T04:56:47;99720.72;;;15.50;100.00
67099;BME280;54288;53.046;5.668;2023-08-01T04:59:13;99707.69;;;15.47;100.00
67099;BME280;54288;53.046;5.668;2023-08-01T05:01:38;99715.44;;;15.50;100.00
67099;BME280;54288;53.046;5.668;2023-08-01T05:04:04;99711.00;;;15.50;100.00
67099;BME280;54288;53.046;5.668;2023-08-01T05:06:30;99718.84;;;15.52;100.00
67099;BME280;54288;53.046;5.668;2023-08-01T05:08:56;99718.84;;;15.52;100.00
67099;BME280;54288;53.046;5.668;2023-08-01T05:11:21;99713.56;;;15.52;100.00
67099;BME280;54288;53.046;5.668;2023-08-01T05:13:50;99723.44;;;15.48;100.00
67099;BME280;54288;53.046;5.668;2023-08-01T05:16:15;99726.91;;;15.49;100.00
67099;BME280;54288;53.046;5.668;2023-08-01T05:18:41;99731.44;;;15.47;100.00
67099;BME280;54288;53.046;5.668;2023-08-01T05:21:07;99728.97;;;15.44;100.00
67099;BME280;54288;53.046;5.668;2023-08-01T05:23:33;99723.97;;;15.39;100.00
67099;BME280;54288;53.046;5.668;2023-08-01T05:25:58;99737.16;;;15.39;100.00
67099;BME280;54288;53.046;5.668;2023-08-01T05:28:24;99736.47;;;15.36;100.00
67099;BME280;54288;53.046;5.668;2023-08-01T05:30:50;99740.94;;;15.35;100.00
67099;BME280;54288;53.046;5.668;2023-08-01T05:33:15;99729.81;;;15.29;100.00
67099;BME280;54288;53.046;5.668;2023-08-01T05:35:41;99727.63;;;15.21;100.00
67099;BME280;54288;53.046;5.668;2023-08-01T05:38:07;99731.88;;;15.24;100.00
67099;BME280;54288;53.046;5.668;2023-08-01T05:40:33;99736.41;;;15.22;100.00
67099;BME280;54288;53.046;5.668;2023-08-01T05:42:58;99722.63;;;15.17;100.00
67099;BME280;54288;53.046;5.668;2023-08-01T05:45:24;99727.03;;;15.16;100.00
67099;BME280;54288;53.046;5.668;2023-08-01T05:47:50;99721.69;;;15.18;100.00
67099;BME280;54288;53.046;5.668;2023-08-01T05:50:16;99727.53;;;15.23;100.00
67099;BME280;54288;53.046;5.668;2023-08-01T05:52:41;99717.81;;;15.23;100.00
67099;BME280;54288;53.046;5.668;2023-08-01T05:55:07;99719.28;;;15.29;100.00
67099;BME280;54288;53.046;5.668;2023-08-01T05:57:33;99726.31;;;15.44;100.00
67099;BME280;54288;53.046;5.668;2023-08-01T05:59:59;99722.81;;;15.59;100.00
67099;BME280;54288;53.046;5.668;2023-08-01T06:02:25;99731.53;;;15.75;100.00
67099;BME280;54288;53.046;5.668;2023-08-01T06:04:50;99734.56;;;15.83;100.00
67099;BME280;54288;53.046;5.668;2023-08-01T06:07:16;99724.19;;;15.80;100.00
67099;BME280;54288;53.046;5.668;2023-08-01T06:09:51;99737.19;;;15.83;100.00
67099;BME280;54288;53.046;5.668;2023-08-01T06:12:19;99730.13;;;15.83;100.00
67099;BME280;54288;53.046;5.668;2023-08-01T06:14:46;99724.00;;;15.83;100.00
67099;BME280;54288;53.046;5.668;2023-08-01T06:17:11;99725.53;;;15.87;100.00
67099;BME280;54288;53.046;5.668;2023-08-01T06:19:37;99732.78;;;15.83;100.00
67099;BME280;54288;53.046;5.668;2023-08-01T06:22:03;99737.19;;;15.83;100.00
67099;BME280;54288;53.046;5.668;2023-08-01T06:24:29;99728.53;;;15.81;100.00
67099;BME280;54288;53.046;5.668;2023-08-01T06:26:57;99730.50;;;15.77;100.00
67099;BME280;54288;53.046;5.668;2023-08-01T06:29:23;99732.47;;;15.74;100.00
67099;BME280;54288;53.046;5.668;2023-08-01T06:31:50;99730.66;;;15.74;100.00
67099;BME280;54288;53.046;5.668;2023-08-01T06:34:16;99734.34;;;15.72;100.00
67099;BME280;54288;53.046;5.668;2023-08-01T06:36:41;99730.19;;;15.68;100.00
67099;BME280;54288;53.046;5.668;2023-08-01T06:39:08;99728.50;;;15.67;100.00
67099;BME280;54288;53.046;5.668;2023-08-01T06:41:33;99726.13;;;15.62;100.00
67099;BME280;54288;53.046;5.668;2023-08-01T06:43:59;99730.72;;;15.59;100.00
67099;BME280;54288;53.046;5.668;2023-08-01T06:46:25;99725.28;;;15.62;100.00
67099;BME280;54288;53.046;5.668;2023-08-01T06:48:51;99730.38;;;15.65;100.00
67099;BME280;54288;53.046;5.668;2023-08-01T06:51:17;99721.34;;;15.69;100.00
67099;BME280;54288;53.046;5.668;2023-08-01T06:53:42;99724.06;;;15.67;100.00
67099;BME280;54288;53.046;5.668;2023-08-01T06:56:08;99730.66;;;15.74;100.00
67099;BME280;54288;53.046;5.668;2023-08-01T06:58:37;99728.91;;;15.75;100.00
67099;BME280;54288;53.046;5.668;2023-08-01T07:01:02;99731.53;;;15.75;100.00
67099;BME280;54288;53.046;5.668;2023-08-01T07:03:28;99728.81;;;15.76;100.00
67099;BME280;54288;53.046;5.668;2023-08-01T07:05:54;99740.41;;;15.74;100.00
67099;BME280;54288;53.046;5.668;2023-08-01T07:08:20;99736.22;;;15.70;100.00
67099;BME280;54288;53.046;5.668;2023-08-01T07:10:46;99742.44;;;15.69;100.00
67099;BME280;54288;53.046;5.668;2023-08-01T07:13:12;99757.69;;;15.64;100.00
67099;BME280;54288;53.046;5.668;2023-08-01T07:15:38;99759.75;;;15.59;100.00
67099;BME280;54288;53.046;5.668;2023-08-01T07:18:04;99765.97;;;15.58;100.00
67099;BME280;54288;53.046;5.668;2023-08-01T07:20:29;99769.38;;;15.60;100.00
67099;BME280;54288;53.046;5.668;2023-08-01T07:22:55;99760.84;;;15.55;100.00
67099;BME280;54288;53.046;5.668;2023-08-01T07:25:21;99768.22;;;15.50;100.00
67099;BME280;54288;53.046;5.668;2023-08-01T07:27:48;99763.09;;;15.47;100.00
67099;BME280;54288;53.046;5.668;2023-08-01T07:30:13;99761.22;;;15.49;100.00
67099;BME280;54288;53.046;5.668;2023-08-01T07:32:39;99767.50;;;15.46;100.00
67099;BME280;54288;53.046;5.668;2023-08-01T07:35:05;99762.94;;;15.50;100.00
67099;BME280;54288;53.046;5.668;2023-08-01T07:37:33;99759.34;;;15.51;100.00
67099;BME280;54288;53.046;5.668;2023-08-01T07:39:59;99755.84;;;15.50;100.00
67099;BME280;54288;53.046;5.668;2023-08-01T07:42:24;99769.19;;;15.63;100.00
67099;BME280;54288;53.046;5.668;2023-08-01T07:44:50;99764.75;;;15.63;100.00
67099;BME280;54288;53.046;5.668;2023-08-01T07:47:16;99771.41;;;15.70;100.00
67099;BME280;54288;53.046;5.668;2023-08-01T07:49:42;99766.78;;;15.74;100.00
67099;BME280;54288;53.046;5.668;2023-08-01T07:52:08;99770.19;;;15.76;100.00
67099;BME280;54288;53.046;5.668;2023-08-01T07:54:34;99769.81;;;15.82;100.00
67099;BME280;54288;53.046;5.668;2023-08-01T07:57:00;99770.03;;;15.79;100.00
67099;BME280;54288;53.046;5.668;2023-08-01T07:59:25;99776.44;;;15.89;100.00
67099;BME280;54288;53.046;5.668;2023-08-01T08:01:51;99774.38;;;15.94;100.00
67099;BME280;54288;53.046;5.668;2023-08-01T08:04:18;99763.28;;;16.03;100.00
67099;BME280;54288;53.046;5.668;2023-08-01T08:06:44;99757.63;;;16.23;100.00
67099;BME280;54288;53.046;5.668;2023-08-01T08:09:10;99770.72;;;16.40;100.00
67099;BME280;54288;53.046;5.668;2023-08-01T08:11:36;99769.59;;;16.72;100.00
67099;BME280;54288;53.046;5.668;2023-08-01T08:14:02;99757.75;;;16.77;100.00
67099;BME280;54288;53.046;5.668;2023-08-01T08:16:27;99760.88;;;16.84;100.00
67099;BME280;54288;53.046;5.668;2023-08-01T08:18:53;99764.31;;;16.72;100.00
67099;BME280;54288;53.046;5.668;2023-08-01T08:21:19;99755.44;;;16.59;100.00
67099;BME280;54288;53.046;5.668;2023-08-01T08:23:45;99762.09;;;16.36;100.00
67099;BME280;54288;53.046;5.668;2023-08-01T08:26:11;99774.34;;;16.23;100.00
67099;BME280;54288;53.046;5.668;2023-08-01T08:28:37;99773.50;;;16.23;100.00
67099;BME280;54288;53.046;5.668;2023-08-01T08:31:03;99779.94;;;16.33;100.00
67099;BME280;54288;53.046;5.668;2023-08-01T08:33:30;99777.16;;;16.50;100.00
67099;BME280;54288;53.046;5.668;2023-08-01T08:35:58;99790.38;;;16.64;100.00
67099;BME280;54288;53.046;5.668;2023-08-01T08:38:24;99787.78;;;16.48;100.00
67099;BME280;54288;53.046;5.668;2023-08-01T08:41:13;99791.75;;;16.41;100.00
67099;BME280;54288;53.046;5.668;2023-08-01T08:43:41;99789.53;;;16.34;100.00
67099;BME280;54288;53.046;5.668;2023-08-01T08:46:08;99791.53;;;16.30;100.00
67099;BME280;54288;53.046;5.668;2023-08-01T08:48:35;99787.78;;;16.34;100.00
67099;BME280;54288;53.046;5.668;2023-08-01T08:51:02;99796.53;;;16.35;100.00
67099;BME280;54288;53.046;5.668;2023-08-01T08:53:30;99782.47;;;16.34;100.00
67099;BME280;54288;53.046;5.668;2023-08-01T08:55:58;99795.84;;;16.47;100.00
67099;BME280;54288;53.046;5.668;2023-08-01T08:58:24;99791.28;;;16.63;100.00
67099;BME280;54288;53.046;5.668;2023-08-01T09:00:50;99784.50;;;16.73;100.00
67099;BME280;54288;53.046;5.668;2023-08-01T09:03:17;99791.38;;;17.03;100.00
67099;BME280;54288;53.046;5.668;2023-08-01T09:05:59;99800.19;;;17.30;100.00
67099;BME280;54288;53.046;5.668;2023-08-01T09:08:32;99790.19;;;17.21;100.00
67099;BME280;54288;53.046;5.668;2023-08-01T09:11:00;99797.97;;;17.10;100.00
67099;BME280;54288;53.046;5.668;2023-08-01T09:13:26;99796.75;;;17.16;100.00
67099;BME280;54288;53.046;5.668;2023-08-01T09:15:51;99804.75;;;17.42;100.00
67099;BME280;54288;53.046;5.668;2023-08-01T09:18:21;99790.53;;;17.70;100.00
67099;BME280;54288;53.046;5.668;2023-08-01T09:20:48;99799.03;;;17.75;100.00
67099;BME280;54288;53.046;5.668;2023-08-01T09:23:16;99791.44;;;17.83;100.00
67099;BME280;54288;53.046;5.668;2023-08-01T09:25:43;99813.81;;;17.91;100.00
67099;BME280;54288;53.046;5.668;2023-08-01T09:28:23;99819.06;;;18.18;100.00
67099;BME280;54288;53.046;5.668;2023-08-01T09:30:51;99823.59;;;18.16;100.00
67099;BME280;54288;53.046;5.668;2023-08-01T09:33:18;99813.97;;;18.15;100.00
67099;BME280;54288;53.046;5.668;2023-08-01T09:35:45;99824.69;;;18.26;100.00
67099;BME280;54288;53.046;5.668;2023-08-01T09:38:14;99825.06;;;18.59;100.00
67099;BME280;54288;53.046;5.668;2023-08-01T09:40:42;99834.50;;;18.38;100.00
67099;BME280;54288;53.046;5.668;2023-08-01T09:43:12;99838.63;;;18.03;100.00
67099;BME280;54288;53.046;5.668;2023-08-01T09:45:50;99843.69;;;17.93;100.00
67099;BME280;54288;53.046;5.668;2023-08-01T09:48:27;99848.81;;;18.48;100.00
67099;BME280;54288;53.046;5.668;2023-08-01T09:51:09;99835.75;;;18.45;100.00
67099;BME280;54288;53.046;5.668;2023-08-01T09:53:55;99833.53;;;19.01;100.00
67099;BME280;54288;53.046;5.668;2023-08-01T09:56:24;99847.75;;;19.25;100.00
67099;BME280;54288;53.046;5.668;2023-08-01T09:58:52;99835.09;;;19.29;100.00
67099;BME280;54288;53.046;5.668;2023-08-01T10:01:20;99840.88;;;18.98;100.00
67099;BME280;54288;53.046;5.668;2023-08-01T10:03:50;99845.13;;;18.88;100.00
67099;BME280;54288;53.046;5.668;2023-08-01T10:06:21;99846.81;;;18.89;100.00
67099;BME280;54288;53.046;5.668;2023-08-01T10:08:50;99847.44;;;18.92;100.00
67099;BME280;54288;53.046;5.668;2023-08-01T10:11:20;99848.31;;;18.80;100.00
67099;BME280;54288;53.046;5.668;2023-08-01T10:13:46;99840.34;;;18.55;100.00
67099;BME280;54288;53.046;5.668;2023-08-01T10:16:13;99851.03;;;18.41;100.00
67099;BME280;54288;53.046;5.668;2023-08-01T10:18:40;99861.88;;;18.38;100.00
67099;BME280;54288;53.046;5.668;2023-08-01T10:21:13;99854.75;;;18.39;100.00
67099;BME280;54288;53.046;5.668;2023-08-01T10:23:40;99856.16;;;18.57;100.00
67099;BME280;54288;53.046;5.668;2023-08-01T10:26:07;99861.66;;;18.79;100.00
67099;BME280;54288;53.046;5.668;2023-08-01T10:28:36;99857.53;;;19.00;100.00
67099;BME280;54288;53.046;5.668;2023-08-01T10:31:16;99851.47;;;18.98;100.00
67099;BME280;54288;53.046;5.668;2023-08-01T10:33:45;99856.25;;;18.68;100.00
67099;BME280;54288;53.046;5.668;2023-08-01T10:36:19;99862.53;;;18.79;100.00
67099;BME280;54288;53.046;5.668;2023-08-01T10:38:50;99864.44;;;18.65;100.00
67099;BME280;54288;53.046;5.668;2023-08-01T10:41:35;99878.19;;;18.45;100.00
67099;BME280;54288;53.046;5.668;2023-08-01T10:46:54;99882.44;;;18.35;100.00
67099;BME280;54288;53.046;5.668;2023-08-01T10:49:33;99887.88;;;18.96;100.00
67099;BME280;54288;53.046;5.668;2023-08-01T10:51:59;99878.81;;;19.36;100.00
67099;BME280;54288;53.046;5.668;2023-08-01T10:54:25;99881.78;;;19.19;100.00
67099;BME280;54288;53.046;5.668;2023-08-01T10:56:55;99893.72;;;19.13;100.00
67099;BME280;54288;53.046;5.668;2023-08-01T10:59:24;99886.69;;;19.25;100.00
67099;BME280;54288;53.046;5.668;2023-08-01T11:01:52;99881.28;;;19.98;100.00
67099;BME280;54288;53.046;5.668;2023-08-01T11:04:22;99880.31;;;20.92;100.00
67099;BME280;54288;53.046;5.668;2023-08-01T11:06:50;99896.16;;;20.48;100.00
67099;BME280;54288;53.046;5.668;2023-08-01T11:09:17;99894.84;;;20.53;100.00
67099;BME280;54288;53.046;5.668;2023-08-01T11:11:44;99885.34;;;20.84;100.00
67099;BME280;54288;53.046;5.668;2023-08-01T11:14:11;99895.50;;;20.68;99.91
67099;BME280;54288;53.046;5.668;2023-08-01T11:16:39;99895.31;;;20.58;100.00
67099;BME280;54288;53.046;5.668;2023-08-01T11:19:06;99898.97;;;20.23;100.00
67099;BME280;54288;53.046;5.668;2023-08-01T11:21:31;99897.28;;;20.22;100.00
67099;BME280;54288;53.046;5.668;2023-08-01T11:24:06;99904.25;;;19.99;100.00
67099;BME280;54288;53.046;5.668;2023-08-01T11:26:32;99909.16;;;19.69;100.00
67099;BME280;54288;53.046;5.668;2023-08-01T11:29:04;99909.75;;;20.09;100.00
67099;BME280;54288;53.046;5.668;2023-08-01T11:31:30;99913.53;;;20.41;100.00
67099;BME280;54288;53.046;5.668;2023-08-01T11:33:57;99908.16;;;20.53;100.00
67099;BME280;54288;53.046;5.668;2023-08-01T11:36:28;99915.59;;;20.83;99.60
67099;BME280;54288;53.046;5.668;2023-08-01T11:38:57;99920.97;;;20.94;95.73
67099;BME280;54288;53.046;5.668;2023-08-01T11:41:24;99925.47;;;20.70;97.81
67099;BME280;54288;53.046;5.668;2023-08-01T11:43:50;99927.41;;;20.68;99.15
67099;BME280;54288;53.046;5.668;2023-08-01T11:46:16;99925.81;;;21.11;97.52
67099;BME280;54288;53.046;5.668;2023-08-01T11:48:46;99920.88;;;21.39;92.42
67099;BME280;54288;53.046;5.668;2023-08-01T11:51:12;99931.44;;;21.30;94.53
67099;BME280;54288;53.046;5.668;2023-08-01T11:53:38;99928.47;;;21.00;93.68
67099;BME280;54288;53.046;5.668;2023-08-01T11:56:05;99938.97;;;20.56;97.68
67099;BME280;54288;53.046;5.668;2023-08-01T11:58:33;99933.06;;;19.93;100.00
67099;BME280;54288;53.046;5.668;2023-08-01T12:01:08;99945.72;;;19.66;100.00
67099;BME280;54288;53.046;5.668;2023-08-01T12:03:49;99943.34;;;19.74;100.00
67099;BME280;54288;53.046;5.668;2023-08-01T12:06:17;99938.75;;;19.76;100.00
67099;BME280;54288;53.046;5.668;2023-08-01T12:08:46;99934.78;;;19.94;100.00
67099;BME280;54288;53.046;5.668;2023-08-01T12:11:19;99945.13;;;20.22;100.00
67099;BME280;54288;53.046;5.668;2023-08-01T12:13:45;99945.44;;;19.81;100.00
67099;BME280;54288;53.046;5.668;2023-08-01T12:16:11;99944.22;;;19.62;100.00
67099;BME280;54288;53.046;5.668;2023-08-01T12:18:39;99945.19;;;19.61;100.00
67099;BME280;54288;53.046;5.668;2023-08-01T12:21:04;99951.38;;;19.85;100.00
67099;BME280;54288;53.046;5.668;2023-08-01T12:23:31;99952.44;;;19.95;100.00
67099;BME280;54288;53.046;5.668;2023-08-01T12:25:57;99956.34;;;20.02;100.00
67099;BME280;54288;53.046;5.668;2023-08-01T12:28:23;99964.16;;;19.80;100.00
67099;BME280;54288;53.046;5.668;2023-08-01T12:30:48;99959.16;;;20.24;100.00
67099;BME280;54288;53.046;5.668;2023-08-01T12:33:16;99962.66;;;20.48;100.00
67099;BME280;54288;53.046;5.668;2023-08-01T12:35:42;99955.28;;;20.51;98.41
67099;BME280;54288;53.046;5.668;2023-08-01T12:38:09;99967.44;;;21.01;96.46
67099;BME280;54288;53.046;5.668;2023-08-01T12:40:35;99964.00;;;20.88;97.46
67099;BME280;54288;53.046;5.668;2023-08-01T12:43:00;99962.59;;;20.60;99.33
67099;BME280;54288;53.046;5.668;2023-08-01T12:45:26;99972.03;;;20.17;97.74
67099;BME280;54288;53.046;5.668;2023-08-01T12:47:52;99984.16;;;19.85;100.00
67099;BME280;54288;53.046;5.668;2023-08-01T12:50:17;99981.41;;;19.74;100.00
67099;BME280;54288;53.046;5.668;2023-08-01T12:52:46;99988.56;;;19.97;100.00